Time;durP1;ratioP1;P1;durP2;ratioP2;P2;SDS_P1;SDS_P2;PMS_P1;PMS_P2;Temp;Humidity;BMP_temperature;BMP_pressure;BME280_temperature;BME280_humidity;BME280_pressure;Samples;Min_cycle;Max_cycle;Signal;HPM_P1;HPM_P2
2023/11/24 00:02:21;;;;;;;1.87;0.70;;;10.70;99.90;;;;;;5061303;28;20217;-58
2023/11/24 00:04:48;;;;;;;0.60;0.50;;;10.60;99.90;;;;;;5060445;28;20202;-57
2023/11/24 00:07:17;;;;;;;0.90;0.70;;;10.60;99.90;;;;;;5062023;28;20206;-57
2023/11/24 00:09:44;;;;;;;2.67;1.00;;;10.50;99.90;;;;;;5063367;28;20255;-56
2023/11/24 00:12:11;;;;;;;1.60;0.80;;;10.50;99.90;;;;;;5062478;28;20644;-57
2023/11/24 00:14:39;;;;;;;0.67;0.60;;;10.40;99.90;;;;;;5060271;28;20213;-57
2023/11/24 00:17:06;;;;;;;0.50;0.50;;;10.40;99.90;;;;;;5060525;28;20210;-56
2023/11/24 00:19:33;;;;;;;1.00;0.80;;;10.40;99.90;;;;;;5063491;28;20208;-57
2023/11/24 00:22:01;;;;;;;2.23;0.80;;;10.40;99.90;;;;;;5063738;28;20208;-57
2023/11/24 00:24:27;;;;;;;4.60;2.70;;;10.30;99.90;;;;;;5060227;28;20205;-57
2023/11/24 00:26:54;;;;;;;0.93;0.70;;;10.40;99.90;;;;;;5059961;28;20213;-56
2023/11/24 00:29:21;;;;;;;2.40;0.70;;;10.30;99.90;;;;;;5062736;28;20324;-57
2023/11/24 00:31:49;;;;;;;0.60;0.60;;;10.40;99.90;;;;;;5063390;28;20236;-57
2023/11/24 00:34:16;;;;;;;3.37;0.83;;;10.30;99.90;;;;;;5061632;28;20209;-57
2023/11/24 00:36:43;;;;;;;0.57;0.40;;;10.30;99.90;;;;;;5059576;28;20656;-57
2023/11/24 00:39:10;;;;;;;1.30;0.73;;;10.20;99.90;;;;;;5060939;28;20205;-56
2023/11/24 00:41:37;;;;;;;1.97;0.70;;;10.20;99.90;;;;;;5063087;28;20228;-57
2023/11/24 00:44:04;;;;;;;0.50;0.50;;;10.40;99.90;;;;;;5063135;28;20205;-57
2023/11/24 00:46:30;;;;;;;1.90;0.60;;;10.40;99.90;;;;;;5059440;28;20205;-57
2023/11/24 00:48:58;;;;;;;1.07;0.67;;;10.40;99.90;;;;;;5059888;28;20206;-57
2023/11/24 00:51:25;;;;;;;2.67;0.50;;;10.40;99.90;;;;;;5062217;28;20704;-58
2023/11/24 00:53:52;;;;;;;1.83;0.60;;;10.40;99.90;;;;;;5062830;28;20616;-57
2023/11/24 00:56:19;;;;;;;2.17;0.70;;;10.50;99.90;;;;;;5060477;28;20255;-57
2023/11/24 00:58:46;;;;;;;1.30;0.50;;;10.60;99.90;;;;;;5058890;28;20217;-57
2023/11/24 01:01:13;;;;;;;0.63;0.60;;;10.60;99.90;;;;;;5060654;28;20236;-57
2023/11/24 01:03:39;;;;;;;0.30;0.30;;;10.60;99.90;;;;;;5063170;28;20209;-57
2023/11/24 01:06:08;;;;;;;0.87;0.40;;;10.70;99.90;;;;;;5062166;28;20628;-57
2023/11/24 01:08:35;;;;;;;0.73;0.40;;;10.60;99.90;;;;;;5059595;28;20201;-57
2023/11/24 01:11:02;;;;;;;2.33;0.40;;;10.70;99.90;;;;;;5059247;28;20265;-57
2023/11/24 01:13:31;;;;;;;0.83;0.30;;;10.80;99.90;;;;;;5062608;28;20201;-57
2023/11/24 01:15:58;;;;;;;0.40;0.33;;;10.90;99.90;;;;;;5062849;28;20318;-57
2023/11/24 01:18:25;;;;;;;0.67;0.43;;;10.90;99.90;;;;;;5059844;28;20233;-58
2023/11/24 01:20:52;;;;;;;1.50;0.40;;;10.90;99.90;;;;;;5059211;28;20426;-57
2023/11/24 01:23:20;;;;;;;0.30;0.30;;;10.90;99.90;;;;;;5060765;28;20216;-58
2023/11/24 01:25:47;;;;;;;0.83;0.33;;;10.90;99.90;;;;;;5062497;28;20205;-57
2023/11/24 01:28:14;;;;;;;0.50;0.30;;;10.90;99.90;;;;;;5061240;28;20322;-58
2023/11/24 01:30:41;;;;;;;1.03;0.50;;;10.90;99.90;;;;;;5059327;28;20230;-58
2023/11/24 01:33:09;;;;;;;0.87;0.50;;;10.90;99.90;;;;;;5059738;28;20461;-57
2023/11/24 01:35:36;;;;;;;0.50;0.50;;;10.90;99.90;;;;;;5062311;28;20611;-57
2023/11/24 01:38:03;;;;;;;0.47;0.40;;;10.90;99.90;;;;;;5062774;28;20205;-57
2023/11/24 01:40:33;;;;;;;0.50;0.30;;;10.90;99.90;;;;;;5058879;28;20327;-57
2023/11/24 01:43:00;;;;;;;1.07;0.43;;;11.00;99.90;;;;;;5059302;28;20257;-58
2023/11/24 01:45:27;;;;;;;0.57;0.47;;;10.90;99.90;;;;;;5062002;28;20193;-58
2023/11/24 01:47:54;;;;;;;1.27;0.60;;;10.90;99.90;;;;;;5062431;28;20231;-57
2023/11/24 01:50:21;;;;;;;0.50;0.43;;;10.90;99.90;;;;;;5060150;28;20287;-57
2023/11/24 01:52:48;;;;;;;0.80;0.60;;;10.90;99.90;;;;;;5059093;28;20248;-57
2023/11/24 01:55:16;;;;;;;1.03;0.50;;;10.90;99.90;;;;;;5059961;28;20268;-58
2023/11/24 01:57:46;;;;;;;1.70;0.50;;;10.90;99.90;;;;;;5062694;28;20629;-57
2023/11/24 02:00:13;;;;;;;0.57;0.50;;;10.80;99.90;;;;;;5061338;28;20283;-57
2023/11/24 02:02:41;;;;;;;0.50;0.50;;;10.80;99.90;;;;;;5058927;28;20267;-58
2023/11/24 02:05:08;;;;;;;1.53;0.67;;;10.90;99.90;;;;;;5058942;28;20222;-58
2023/11/24 02:07:35;;;;;;;0.60;0.40;;;10.80;99.90;;;;;;5062395;28;20196;-58
2023/11/24 02:10:03;;;;;;;0.50;0.50;;;10.80;99.90;;;;;;5062290;28;20589;-57
2023/11/24 02:12:29;;;;;;;0.50;0.30;;;10.80;99.90;;;;;;5059064;28;20206;-58
2023/11/24 02:14:58;;;;;;;0.47;0.40;;;10.80;99.90;;;;;;5058767;28;20209;-58
2023/11/24 02:17:25;;;;;;;0.83;0.30;;;10.80;99.90;;;;;;5061352;28;20308;-57
2023/11/24 02:19:52;;;;;;;0.80;0.50;;;10.80;99.90;;;;;;5062373;28;20231;-57
2023/11/24 02:22:19;;;;;;;0.50;0.50;;;10.80;99.90;;;;;;5060085;28;20209;-58
2023/11/24 02:24:47;;;;;;;0.40;0.40;;;10.80;99.90;;;;;;5059099;28;20234;-57
2023/11/24 02:27:18;;;;;;;0.63;0.63;;;10.80;99.90;;;;;;5059689;28;20209;-57
2023/11/24 02:29:45;;;;;;;0.53;0.40;;;10.80;99.90;;;;;;5062197;28;20259;-57
2023/11/24 02:32:12;;;;;;;2.10;0.60;;;10.80;99.90;;;;;;5061106;28;20737;-57
2023/11/24 02:34:39;;;;;;;0.60;0.60;;;10.80;99.90;;;;;;5062817;28;20580;-57
2023/11/24 02:37:06;;;;;;;0.70;0.70;;;10.80;99.90;;;;;;5062047;28;20224;-58
2023/11/24 02:39:33;;;;;;;0.90;0.60;;;10.70;99.90;;;;;;5061842;28;20231;-57
2023/11/24 02:42:01;;;;;;;0.47;0.47;;;10.70;99.90;;;;;;5062113;28;20209;-57
2023/11/24 02:44:28;;;;;;;0.60;0.60;;;10.60;99.90;;;;;;5070308;28;20197;-57
2023/11/24 02:46:55;;;;;;;0.77;0.70;;;10.70;99.90;;;;;;5061961;28;20225;-57
2023/11/24 02:49:21;;;;;;;0.60;0.60;;;10.70;99.90;;;;;;5063752;28;20231;-59
2023/11/24 02:51:48;;;;;;;0.60;0.60;;;10.60;99.90;;;;;;5065675;28;20244;-57
2023/11/24 02:54:15;;;;;;;0.90;0.87;;;10.70;99.90;;;;;;5064143;28;20595;-57
2023/11/24 02:56:42;;;;;;;0.90;0.60;;;10.70;99.90;;;;;;5061624;28;20225;-58
2023/11/24 02:59:10;;;;;;;1.40;0.63;;;10.70;99.90;;;;;;5061947;28;20205;-57
2023/11/24 03:01:37;;;;;;;1.10;0.60;;;10.70;99.90;;;;;;5064995;28;20274;-58
2023/11/24 03:04:04;;;;;;;1.53;0.90;;;10.60;99.90;;;;;;5065042;28;20479;-57
2023/11/24 03:06:30;;;;;;;1.00;0.80;;;10.50;99.90;;;;;;5061746;28;20194;-57
2023/11/24 03:09:00;;;;;;;1.43;0.70;;;10.50;99.90;;;;;;5061633;28;20283;-57
2023/11/24 03:11:30;;;;;;;0.87;0.87;;;10.50;99.90;;;;;;5064166;28;20298;-57
2023/11/24 03:13:56;;;;;;;0.67;0.60;;;10.50;99.90;;;;;;5065140;28;20204;-58
2023/11/24 03:16:25;;;;;;;1.17;0.67;;;10.50;99.90;;;;;;5062585;28;20229;-57
2023/11/24 03:18:53;;;;;;;0.50;0.50;;;10.50;99.90;;;;;;5061391;28;20205;-57
2023/11/24 03:21:19;;;;;;;0.50;0.50;;;10.50;99.90;;;;;;5062852;28;20647;-57
2023/11/24 03:23:46;;;;;;;0.30;0.30;;;10.60;99.90;;;;;;5064861;28;20205;-58
2023/11/24 03:26:13;;;;;;;0.40;0.40;;;10.50;99.90;;;;;;5063800;28;20216;-58
2023/11/24 03:28:39;;;;;;;0.40;0.40;;;10.70;99.90;;;;;;5061185;28;20212;-57
2023/11/24 03:31:06;;;;;;;0.70;0.40;;;10.70;99.90;;;;;;5060938;28;20233;-57
2023/11/24 03:33:35;;;;;;;0.90;0.20;;;10.80;99.90;;;;;;5064374;28;20205;-56
2023/11/24 03:36:02;;;;;;;0.50;0.37;;;10.80;99.90;;;;;;5064370;28;20686;-56
2023/11/24 03:38:29;;;;;;;0.43;0.30;;;10.90;99.90;;;;;;5061541;28;20221;-57
2023/11/24 03:40:56;;;;;;;0.67;0.40;;;10.90;99.90;;;;;;5061183;28;20260;-57
2023/11/24 03:43:24;;;;;;;0.43;0.30;;;10.90;99.90;;;;;;5062840;28;20212;-57
2023/11/24 03:45:50;;;;;;;0.60;0.30;;;10.90;99.90;;;;;;5063786;28;20450;-57
2023/11/24 03:48:21;;;;;;;0.40;0.30;;;10.90;99.90;;;;;;5062803;28;20647;-58
2023/11/24 03:50:49;;;;;;;0.30;0.30;;;10.90;99.90;;;;;;5060725;28;20725;-57
2023/11/24 03:53:16;;;;;;;0.80;0.30;;;10.90;99.90;;;;;;5061743;28;20297;-57
2023/11/24 03:55:42;;;;;;;0.20;0.20;;;10.90;99.90;;;;;;5063878;28;20503;-57
2023/11/24 03:58:10;;;;;;;0.27;0.27;;;10.90;99.90;;;;;;5063677;28;20270;-57
2023/11/24 04:00:37;;;;;;;0.40;0.20;;;10.80;99.90;;;;;;5060799;28;20253;-56
2023/11/24 04:03:05;;;;;;;0.20;0.20;;;10.90;99.90;;;;;;5060604;28;20569;-57
2023/11/24 04:05:32;;;;;;;0.23;0.23;;;10.90;99.90;;;;;;5063235;28;20209;-57
2023/11/24 04:08:00;;;;;;;0.20;0.20;;;11.00;99.90;;;;;;5063847;28;20643;-57
2023/11/24 04:10:26;;;;;;;0.23;0.20;;;11.00;99.90;;;;;;5087518;22;20225;-55
2023/11/24 04:12:53;;;;;;;0.50;0.27;;;11.00;99.90;;;;;;5064052;28;20205;-54
2023/11/24 04:15:20;;;;;;;0.37;0.30;;;10.90;99.90;;;;;;5062075;28;20205;-55
2023/11/24 04:17:46;;;;;;;1.67;0.30;;;10.90;99.90;;;;;;5060338;28;20316;-55
2023/11/24 04:20:14;;;;;;;0.40;0.20;;;10.90;99.90;;;;;;5060389;28;20229;-54
2023/11/24 04:22:41;;;;;;;0.63;0.30;;;10.90;99.90;;;;;;5063599;28;20209;-55
2023/11/24 04:25:10;;;;;;;0.63;0.30;;;10.90;99.90;;;;;;5063115;28;20209;-55
2023/11/24 04:27:37;;;;;;;1.77;0.30;;;11.00;99.90;;;;;;5060130;28;20213;-56
2023/11/24 04:30:04;;;;;;;0.40;0.30;;;11.00;99.90;;;;;;5059995;28;20377;-55
2023/11/24 04:32:31;;;;;;;16.73;12.87;;;10.90;99.90;;;;;;5062721;28;20207;-55
2023/11/24 04:34:58;;;;;;;0.87;0.40;;;10.90;99.90;;;;;;5063031;28;20290;-55
2023/11/24 04:37:24;;;;;;;0.43;0.30;;;10.80;99.90;;;;;;5061142;28;20707;-55
2023/11/24 04:39:52;;;;;;;0.30;0.30;;;10.80;99.90;;;;;;5059740;28;20214;-55
2023/11/24 04:42:20;;;;;;;0.20;0.20;;;10.80;99.90;;;;;;5060928;28;20201;-55
2023/11/24 04:44:47;;;;;;;1.00;0.50;;;10.90;99.90;;;;;;5063409;28;20201;-55
2023/11/24 04:47:13;;;;;;;0.90;0.40;;;10.80;99.90;;;;;;5062419;28;20204;-55
2023/11/24 04:49:40;;;;;;;1.30;0.63;;;10.80;99.90;;;;;;5059643;28;20255;-54
2023/11/24 04:52:07;;;;;;;3.50;0.80;;;10.50;99.90;;;;;;5059221;28;20213;-55
2023/11/24 04:54:33;;;;;;;1.53;0.93;;;10.20;99.90;;;;;;5062648;28;20678;-55
2023/11/24 04:57:00;;;;;;;4.03;1.07;;;10.00;99.90;;;;;;5061867;28;20221;-54
2023/11/24 04:59:30;;;;;;;5.87;1.70;;;9.80;99.90;;;;;;5060806;28;20205;-54
2023/11/24 05:01:57;;;;;;;3.80;1.43;;;9.60;99.90;;;;;;5059426;28;20248;-54
2023/11/24 05:04:24;;;;;;;4.83;1.83;;;9.60;99.90;;;;;;5061087;28;20590;-54
2023/11/24 05:06:50;;;;;;;9.87;2.50;;;9.60;99.90;;;;;;5062531;28;20204;-54
2023/11/24 05:09:17;;;;;;;9.90;1.80;;;9.60;99.90;;;;;;5061625;28;20216;-56
2023/11/24 05:11:44;;;;;;;4.00;1.60;;;9.50;99.90;;;;;;5059478;28;20260;-55
2023/11/24 05:14:11;;;;;;;6.77;2.40;;;9.40;99.90;;;;;;5059169;28;20205;-54
2023/11/24 05:16:38;;;;;;;9.27;1.63;;;9.30;99.90;;;;;;5058934;28;20218;-55
2023/11/24 05:19:05;;;;;;;7.83;2.27;;;9.30;99.90;;;;;;5059278;28;20201;-55
2023/11/24 05:21:33;;;;;;;6.33;2.07;;;9.30;99.90;;;;;;5061983;28;20263;-56
2023/11/24 05:24:00;;;;;;;4.73;1.70;;;9.20;99.90;;;;;;5062906;28;20231;-55
2023/11/24 05:26:27;;;;;;;5.70;1.60;;;9.30;99.90;;;;;;5060216;28;20611;-56
2023/11/24 05:28:54;;;;;;;4.20;1.70;;;9.40;99.90;;;;;;5059407;28;20209;-56
2023/11/24 05:31:21;;;;;;;4.00;1.53;;;9.40;99.90;;;;;;5060180;28;20229;-55
2023/11/24 05:33:49;;;;;;;5.07;1.90;;;9.50;99.90;;;;;;5062545;28;20205;-55
2023/11/24 05:36:16;;;;;;;5.43;1.63;;;9.50;99.90;;;;;;5061503;28;20220;-55
2023/11/24 05:38:42;;;;;;;5.30;1.40;;;9.40;99.90;;;;;;5059391;28;20209;-56
2023/11/24 05:41:09;;;;;;;4.53;1.90;;;9.50;99.90;;;;;;5059044;28;20272;-55
2023/11/24 05:43:36;;;;;;;3.47;1.43;;;9.60;99.90;;;;;;5062475;28;20209;-55
2023/11/24 05:46:03;;;;;;;7.40;1.80;;;9.50;99.90;;;;;;5062319;28;20201;-55
2023/11/24 05:48:30;;;;;;;4.13;1.33;;;9.30;99.90;;;;;;5059667;28;20247;-54
2023/11/24 05:50:58;;;;;;;6.70;2.43;;;9.30;99.90;;;;;;5058485;28;20221;-55
2023/11/24 05:53:25;;;;;;;8.20;2.57;;;9.30;99.90;;;;;;5060980;28;20267;-55
2023/11/24 05:55:52;;;;;;;8.80;2.37;;;9.40;99.90;;;;;;5062153;28;20208;-55
2023/11/24 05:58:21;;;;;;;5.10;1.80;;;9.50;99.90;;;;;;5061224;28;20291;-56
2023/11/24 06:00:48;;;;;;;6.17;1.80;;;9.60;99.90;;;;;;5058682;28;20222;-54
2023/11/24 06:03:15;;;;;;;7.10;1.80;;;9.60;99.90;;;;;;5059423;28;20201;-55
2023/11/24 06:05:41;;;;;;;6.07;1.93;;;9.70;99.90;;;;;;5063046;28;20205;-53
2023/11/24 06:08:10;;;;;;;6.70;2.00;;;9.80;99.90;;;;;;5064148;28;20201;-55
2023/11/24 06:10:38;;;;;;;5.30;1.40;;;9.70;99.90;;;;;;5062613;28;20315;-55
2023/11/24 06:13:04;;;;;;;7.73;1.93;;;9.70;99.90;;;;;;5062752;28;20237;-55
2023/11/24 06:15:31;;;;;;;9.53;1.87;;;9.60;99.90;;;;;;5064564;28;20210;-54
2023/11/24 06:17:58;;;;;;;5.10;1.73;;;9.60;99.90;;;;;;5066001;28;20232;-54
2023/11/24 06:20:25;;;;;;;7.03;1.97;;;9.70;99.90;;;;;;5064084;28;20290;-54
2023/11/24 06:22:51;;;;;;;6.87;2.03;;;9.70;99.90;;;;;;5063264;28;20217;-55
2023/11/24 06:25:19;;;;;;;7.53;2.77;;;9.80;99.90;;;;;;5062944;28;20671;-54
2023/11/24 06:27:46;;;;;;;5.93;2.10;;;9.80;99.90;;;;;;5066303;28;20201;-55
2023/11/24 06:30:13;;;;;;;9.90;2.20;;;9.80;99.90;;;;;;5065598;28;20232;-55
2023/11/24 06:32:40;;;;;;;7.93;1.80;;;9.90;99.90;;;;;;5062039;28;20629;-54
2023/11/24 06:35:09;;;;;;;5.03;1.80;;;9.90;99.90;;;;;;5061795;28;20217;-55
2023/11/24 06:37:36;;;;;;;4.57;1.67;;;9.90;99.90;;;;;;5064863;28;20733;-55
2023/11/24 06:40:04;;;;;;;6.37;2.13;;;9.90;99.90;;;;;;5065693;28;20221;-55
2023/11/24 06:42:32;;;;;;;6.70;1.97;;;9.90;99.90;;;;;;5063083;28;20574;-54
2023/11/24 06:44:58;;;;;;;7.20;2.60;;;9.90;99.90;;;;;;5062105;28;20205;-55
2023/11/24 06:47:25;;;;;;;6.60;1.80;;;9.90;99.90;;;;;;5063397;28;20564;-55
2023/11/24 06:49:52;;;;;;;7.50;2.27;;;10.00;99.90;;;;;;5065377;28;20205;-55
2023/11/24 06:52:19;;;;;;;7.47;2.97;;;10.00;99.90;;;;;;5065097;28;20239;-55
2023/11/24 06:54:46;;;;;;;11.53;2.73;;;10.00;99.90;;;;;;5061950;28;20209;-56
2023/11/24 06:57:13;;;;;;;6.43;2.10;;;10.00;99.90;;;;;;5061341;28;20229;-56
2023/11/24 06:59:41;;;;;;;7.30;2.63;;;10.00;99.90;;;;;;5061612;28;20214;-55
2023/11/24 07:02:07;;;;;;;6.83;2.33;;;10.00;99.90;;;;;;5061645;28;20210;-55
2023/11/24 07:04:34;;;;;;;8.93;2.17;;;10.10;99.90;;;;;;5064261;28;20289;-56
2023/11/24 07:07:01;;;;;;;5.27;2.00;;;10.10;99.90;;;;;;5064748;28;20205;-55
2023/11/24 07:09:28;;;;;;;11.00;4.67;;;10.10;99.90;;;;;;5062760;28;20329;-55
2023/11/24 07:11:54;;;;;;;5.93;2.77;;;10.10;99.90;;;;;;5061189;28;20229;-54
2023/11/24 07:14:21;;;;;;;8.13;2.53;;;10.20;99.90;;;;;;5062478;28;20202;-55
2023/11/24 07:16:49;;;;;;;6.37;2.23;;;10.20;99.90;;;;;;5064659;28;20613;-55
2023/11/24 07:19:17;;;;;;;8.27;2.57;;;10.30;99.90;;;;;;5063610;28;20215;-55
2023/11/24 07:21:45;;;;;;;7.07;2.43;;;10.30;99.90;;;;;;5061202;28;20316;-55
2023/11/24 07:24:11;;;;;;;5.10;2.07;;;10.30;99.90;;;;;;5060937;28;20202;-55
2023/11/24 07:26:38;;;;;;;5.43;2.20;;;10.30;99.90;;;;;;5063905;28;20663;-55
2023/11/24 07:29:05;;;;;;;7.60;2.83;;;10.30;99.90;;;;;;5064462;28;20473;-55
2023/11/24 07:31:32;;;;;;;7.87;2.40;;;10.40;99.90;;;;;;5061903;28;20224;-56
2023/11/24 07:34:00;;;;;;;10.53;2.47;;;10.40;99.90;;;;;;5060945;28;20710;-55
2023/11/24 07:36:27;;;;;;;8.13;2.30;;;10.40;99.90;;;;;;5062941;28;20236;-55
2023/11/24 07:38:53;;;;;;;6.20;2.23;;;10.50;99.90;;;;;;5064232;28;20224;-59
2023/11/24 07:41:20;;;;;;;5.07;2.07;;;10.50;99.90;;;;;;5063348;28;20644;-56
2023/11/24 07:43:47;;;;;;;5.70;2.30;;;10.50;99.90;;;;;;5060813;28;20221;-56
2023/11/24 07:46:13;;;;;;;5.43;2.13;;;10.60;99.90;;;;;;5060506;28;20721;-56
2023/11/24 07:48:41;;;;;;;9.97;2.30;;;10.70;99.90;;;;;;5064135;28;20209;-56
2023/11/24 07:51:10;;;;;;;9.57;2.37;;;10.70;99.90;;;;;;5063679;28;20685;-56
2023/11/24 07:53:36;;;;;;;4.40;2.10;;;10.70;99.90;;;;;;5061323;28;20213;-56
2023/11/24 07:56:05;;;;;;;11.23;4.47;;;10.70;99.90;;;;;;5060541;28;20290;-57
2023/11/24 07:58:32;;;;;;;5.87;3.07;;;10.70;99.90;;;;;;5062535;28;20221;-55
2023/11/24 08:01:00;;;;;;;4.23;2.10;;;10.70;99.90;;;;;;5063699;28;20709;-55
2023/11/24 08:03:28;;;;;;;4.47;1.70;;;10.60;99.90;;;;;;5062308;28;20201;-55
2023/11/24 08:05:56;;;;;;;5.97;1.80;;;10.50;99.90;;;;;;5060236;28;20237;-55
2023/11/24 08:08:24;;;;;;;8.03;2.07;;;10.50;99.90;;;;;;5061181;28;20705;-58
2023/11/24 08:10:50;;;;;;;9.70;4.37;;;10.50;99.90;;;;;;5063917;28;20580;-56
2023/11/24 08:13:19;;;;;;;5.77;1.83;;;10.40;99.90;;;;;;5063583;28;20209;-55
2023/11/24 08:15:45;;;;;;;9.10;1.80;;;10.50;99.90;;;;;;5059661;28;20205;-55
2023/11/24 08:18:12;;;;;;;11.67;5.20;;;10.50;99.90;;;;;;5060000;28;20240;-55
2023/11/24 08:20:40;;;;;;;5.60;1.60;;;10.50;99.90;;;;;;5062779;28;20705;-55
2023/11/24 08:23:06;;;;;;;4.37;1.47;;;10.40;99.90;;;;;;5063493;28;20201;-56
2023/11/24 08:25:35;;;;;;;6.37;1.57;;;10.40;99.90;;;;;;5060980;28;20213;-57
2023/11/24 08:28:04;;;;;;;4.60;1.57;;;10.30;99.90;;;;;;5060124;28;20202;-55
2023/11/24 08:30:32;;;;;;;5.43;2.00;;;10.40;99.90;;;;;;5061376;28;20622;-56
2023/11/24 08:32:58;;;;;;;5.50;1.73;;;10.40;99.90;;;;;;5063420;28;20216;-56
2023/11/24 08:35:26;;;;;;;7.00;2.47;;;10.40;99.90;;;;;;5061812;28;20573;-56
2023/11/24 08:37:52;;;;;;;6.27;1.90;;;10.50;99.90;;;;;;5059856;28;20252;-55
2023/11/24 08:40:21;;;;;;;9.53;1.53;;;10.50;99.90;;;;;;5059686;28;20649;-55
2023/11/24 08:42:49;;;;;;;7.23;1.77;;;10.30;99.90;;;;;;5063076;28;20205;-56
2023/11/24 08:45:16;;;;;;;5.27;1.53;;;10.40;99.90;;;;;;5063099;28;20209;-56
2023/11/24 08:47:43;;;;;;;5.37;1.80;;;10.30;99.90;;;;;;5063267;28;20208;-57
2023/11/24 08:50:13;;;;;;;7.87;2.13;;;10.30;99.90;;;;;;5063231;28;20254;-55
2023/11/24 08:52:39;;;;;;;6.13;1.90;;;10.30;99.90;;;;;;5059851;28;20288;-56
2023/11/24 08:55:08;;;;;;;5.70;1.70;;;10.30;99.90;;;;;;5059419;28;20213;-56
2023/11/24 08:57:35;;;;;;;4.50;1.70;;;10.30;99.90;;;;;;5061759;28;20668;-56
2023/11/24 09:00:05;;;;;;;4.53;1.63;;;10.40;99.90;;;;;;5062652;28;20201;-55
2023/11/24 09:02:32;;;;;;;6.07;1.70;;;10.40;99.90;;;;;;5061038;28;20205;-55
2023/11/24 09:05:00;;;;;;;5.57;1.70;;;10.60;99.90;;;;;;5059465;28;20198;-56
2023/11/24 09:07:27;;;;;;;4.47;1.60;;;10.60;99.90;;;;;;5060724;28;20251;-56
2023/11/24 09:09:54;;;;;;;5.93;2.00;;;10.60;99.90;;;;;;5062810;28;20200;-57
2023/11/24 09:12:20;;;;;;;6.33;2.43;;;10.60;99.90;;;;;;5062249;28;20201;-57
2023/11/24 09:14:47;;;;;;;7.60;2.07;;;10.60;99.90;;;;;;5059106;28;20212;-55
2023/11/24 09:17:15;;;;;;;6.47;1.90;;;10.60;99.90;;;;;;5059427;28;20201;-56
2023/11/24 09:19:42;;;;;;;8.33;1.80;;;10.50;99.90;;;;;;5062356;28;20243;-55
2023/11/24 09:22:10;;;;;;;6.57;1.80;;;10.30;99.90;;;;;;5062785;28;20239;-56
2023/11/24 09:24:37;;;;;;;4.93;1.60;;;10.00;99.90;;;;;;5060203;28;20258;-56
2023/11/24 09:27:04;;;;;;;6.20;2.03;;;9.80;99.90;;;;;;5058975;28;20691;-56
2023/11/24 09:29:30;;;;;;;9.83;1.70;;;9.50;99.90;;;;;;5060500;28;20229;-56
2023/11/24 09:31:58;;;;;;;6.53;1.70;;;9.30;99.90;;;;;;5062660;28;20696;-55
2023/11/24 09:34:28;;;;;;;5.97;1.70;;;8.90;99.90;;;;;;5061676;28;20239;-55
2023/11/24 09:36:55;;;;;;;6.53;1.43;;;8.50;99.90;;;;;;5058869;28;20288;-56
2023/11/24 09:39:26;;;;;;;4.07;1.50;;;8.30;99.90;;;;;;5059760;28;20218;-55
2023/11/24 09:41:53;;;;;;;3.23;1.40;;;8.20;99.90;;;;;;5062600;28;20220;-56
2023/11/24 09:44:21;;;;;;;6.63;1.50;;;8.10;99.90;;;;;;5066193;28;20674;-56
2023/11/24 09:46:49;;;;;;;6.73;1.70;;;8.10;99.90;;;;;;5062938;28;20216;-55
2023/11/24 09:49:16;;;;;;;5.60;1.90;;;7.90;99.90;;;;;;5063167;28;20576;-63
2023/11/24 09:51:44;;;;;;;4.53;2.00;;;8.00;99.90;;;;;;5065864;28;20390;-60
2023/11/24 09:54:12;;;;;;;5.90;1.93;;;8.10;99.90;;;;;;5055406;28;20443;-58
2023/11/24 09:56:43;;;;;;;5.00;1.80;;;8.20;99.90;;;;;;5065477;28;20263;-61
2023/11/24 09:59:09;;;;;;;5.03;2.23;;;8.20;99.90;;;;;;5066346;28;20307;-62
2023/11/24 10:01:39;;;;;;;5.87;1.90;;;8.30;99.90;;;;;;5063594;28;20585;-60
2023/11/24 10:04:06;;;;;;;7.27;2.30;;;8.50;99.90;;;;;;5062409;28;20202;-60
2023/11/24 10:06:35;;;;;;;6.27;2.13;;;8.40;99.90;;;;;;5064240;28;20318;-61
2023/11/24 10:09:06;;;;;;;8.23;1.97;;;8.50;99.90;;;;;;5065981;28;20216;-61
2023/11/24 10:11:35;;;;;;;14.03;3.43;;;8.70;99.90;;;;;;5064367;28;20232;-58
2023/11/24 10:14:04;;;;;;;7.97;2.70;;;8.90;99.90;;;;;;5055243;28;20236;-58
2023/11/24 10:16:31;;;;;;;8.83;2.40;;;9.20;99.90;;;;;;5063431;28;20231;-59
2023/11/24 10:19:00;;;;;;;9.83;2.50;;;9.50;99.90;;;;;;5068948;28;20228;-58
2023/11/24 10:21:28;;;;;;;7.20;2.33;;;9.70;99.90;;;;;;5054195;28;20674;-59
2023/11/24 10:23:56;;;;;;;6.47;2.40;;;9.80;99.90;;;;;;5069327;28;20238;-60
2023/11/24 10:26:25;;;;;;;8.93;2.20;;;9.80;99.90;;;;;;5061755;28;20251;-61
2023/11/24 10:28:53;;;;;;;7.73;2.40;;;9.80;99.90;;;;;;5057802;28;20200;-58
2023/11/24 10:31:19;;;;;;;8.07;2.17;;;10.00;99.90;;;;;;5065456;28;20260;-57
2023/11/24 10:33:46;;;;;;;10.03;2.00;;;10.20;99.90;;;;;;5073495;28;20224;-60
2023/11/24 10:36:16;;;;;;;8.70;3.00;;;10.40;99.90;;;;;;5057942;28;20674;-59
2023/11/24 10:38:44;;;;;;;6.00;2.50;;;10.60;99.90;;;;;;5062060;28;20597;-61
2023/11/24 10:41:12;;;;;;;7.87;2.03;;;10.90;99.90;;;;;;5068287;28;20224;-58
2023/11/24 10:43:41;;;;;;;8.43;2.50;;;10.90;99.90;;;;;;5057516;28;20591;-58
2023/11/24 10:46:12;;;;;;;7.33;1.70;;;10.80;99.90;;;;;;5059162;28;20201;-59
2023/11/24 10:48:47;;;;;;;6.33;1.70;;;10.60;99.90;;;;;;5066069;28;20212;-59
2023/11/24 10:51:21;;;;;;;6.50;2.00;;;10.50;99.90;;;;;;5067968;28;20228;-59
2023/11/24 10:53:52;;;;;;;7.47;2.20;;;10.70;99.90;;;;;;5056900;28;20201;-58
2023/11/24 10:56:20;;;;;;;8.57;2.10;;;10.70;99.90;;;;;;5056555;28;20209;-57
2023/11/24 10:58:52;;;;;;;4.57;1.70;;;10.80;99.90;;;;;;5061530;28;20715;-57
2023/11/24 11:01:22;;;;;;;8.83;2.17;;;10.80;99.90;;;;;;5070055;28;20256;-60
2023/11/24 11:03:50;;;;;;;7.77;1.93;;;10.90;99.90;;;;;;5065041;28;20209;-58
2023/11/24 11:06:30;;;;;;;7.60;2.47;;;10.80;99.90;;;;;;5056613;28;20206;-59
2023/11/24 11:09:19;;;;;;;8.30;2.37;;;10.90;99.90;;;;;;5057985;28;20300;-62
2023/11/24 11:12:13;;;;;;;8.13;2.30;;;11.00;99.90;;;;;;5061119;28;20275;-61
2023/11/24 11:14:41;;;;;;;7.37;2.43;;;11.00;99.90;;;;;;5063168;28;20707;-62
2023/11/24 11:17:15;;;;;;;8.23;3.27;;;11.10;99.90;;;;;;5064894;28;20201;-62
2023/11/24 11:19:58;;;;;;;7.50;2.57;;;11.10;99.90;;;;;;5060781;28;20260;-62
2023/11/24 11:22:28;;;;;;;6.47;2.20;;;11.00;99.90;;;;;;5051882;28;20745;-63
2023/11/24 11:24:56;;;;;;;12.70;4.07;;;11.00;99.90;;;;;;5061101;28;20233;-64
2023/11/24 11:27:24;;;;;;;6.03;2.27;;;11.00;99.90;;;;;;5061190;28;20256;-63
2023/11/24 11:29:53;;;;;;;6.47;1.90;;;11.00;99.90;;;;;;5064272;28;20291;-63
2023/11/24 11:32:22;;;;;;;9.00;2.20;;;11.00;99.90;;;;;;5061268;28;20647;-60
2023/11/24 11:34:49;;;;;;;6.67;2.63;;;11.10;99.90;;;;;;5061041;28;20213;-60
2023/11/24 11:37:15;;;;;;;8.63;2.50;;;11.10;99.90;;;;;;5052351;28;20206;-63
2023/11/24 11:39:53;;;;;;;11.70;2.40;;;11.20;99.90;;;;;;5066026;28;20702;-62
2023/11/24 11:42:22;;;;;;;6.40;2.27;;;11.30;99.90;;;;;;5068163;28;20685;-62
2023/11/24 11:44:56;;;;;;;8.90;2.37;;;11.40;99.90;;;;;;5063789;28;20296;-61
2023/11/24 11:47:26;;;;;;;8.57;2.43;;;11.40;99.90;;;;;;5064141;28;20202;-60
2023/11/24 11:49:54;;;;;;;10.03;2.00;;;11.50;99.90;;;;;;5063127;28;20307;-61
2023/11/24 11:52:22;;;;;;;7.50;2.57;;;11.40;99.90;;;;;;5068404;28;20600;-61
2023/11/24 11:54:51;;;;;;;18.13;3.77;;;11.40;99.90;;;;;;5051943;28;20241;-61
2023/11/24 11:57:18;;;;;;;11.10;3.50;;;11.30;99.90;;;;;;5051925;28;20229;-61
2023/11/24 11:59:47;;;;;;;10.27;2.30;;;11.30;99.90;;;;;;5063669;28;20220;-60
2023/11/24 12:02:17;;;;;;;6.10;2.53;;;11.20;99.90;;;;;;5063870;28;20240;-56
2023/11/24 12:04:45;;;;;;;6.50;1.77;;;11.10;99.90;;;;;;5060753;28;20260;-56
2023/11/24 12:07:13;;;;;;;9.37;2.70;;;10.90;99.90;;;;;;5059436;28;20210;-56
2023/11/24 12:09:41;;;;;;;7.70;2.63;;;10.70;99.90;;;;;;5062119;28;20339;-56
2023/11/24 12:12:09;;;;;;;7.53;2.00;;;10.60;99.90;;;;;;5063562;28;20289;-55
2023/11/24 12:14:38;;;;;;;6.77;1.80;;;10.60;99.90;;;;;;5055103;28;20727;-57
2023/11/24 12:17:05;;;;;;;6.10;2.00;;;10.40;99.90;;;;;;5063050;28;20205;-57
2023/11/24 12:19:34;;;;;;;6.67;2.43;;;10.20;99.90;;;;;;5061545;28;20299;-57
2023/11/24 12:22:03;;;;;;;5.93;1.73;;;10.20;99.90;;;;;;5056516;28;20232;-58
2023/11/24 12:24:31;;;;;;;4.90;2.07;;;10.30;99.90;;;;;;5070484;28;20205;-58
2023/11/24 12:26:59;;;;;;;7.37;2.40;;;10.40;99.90;;;;;;5059496;28;20209;-58
2023/11/24 12:29:26;;;;;;;6.27;2.27;;;10.40;99.90;;;;;;5060703;28;20577;-58
2023/11/24 12:31:54;;;;;;;6.10;1.93;;;10.50;99.90;;;;;;5058897;28;20706;-58
2023/11/24 12:34:21;;;;;;;5.17;2.13;;;10.60;99.90;;;;;;5067784;28;20208;-59
2023/11/24 12:36:53;;;;;;;6.23;2.93;;;10.80;99.90;;;;;;5059855;28;20576;-59
2023/11/24 12:39:20;;;;;;;7.17;2.77;;;10.90;99.90;;;;;;5067222;28;20311;-60
2023/11/24 12:41:47;;;;;;;8.57;2.67;;;11.00;99.90;;;;;;5057691;28;20325;-60
2023/11/24 12:44:14;;;;;;;10.53;1.73;;;11.10;99.90;;;;;;5071325;28;20208;-55
2023/11/24 12:46:41;;;;;;;6.90;1.73;;;11.00;99.90;;;;;;5054377;28;20221;-54
2023/11/24 12:49:09;;;;;;;7.27;1.90;;;10.90;99.90;;;;;;5063196;28;20584;-55
2023/11/24 12:51:37;;;;;;;5.73;1.50;;;10.60;99.90;;;;;;5061290;28;20264;-55